sensor_id;sensor_type;location;lat;lon;timestamp;temperature;humidity
39189;DHT22;24915;50.858;4.376;2023-03-01T00:01:24;3.20;91.50
39189;DHT22;24915;50.858;4.376;2023-03-01T00:03:51;3.20;91.70
39189;DHT22;24915;50.858;4.376;2023-03-01T00:06:17;3.20;91.90
39189;DHT22;24915;50.858;4.376;2023-03-01T00:08:43;3.10;91.90
39189;DHT22;24915;50.858;4.376;2023-03-01T00:11:18;3.10;91.90
39189;DHT22;24915;50.858;4.376;2023-03-01T00:13:46;3.10;92.20
39189;DHT22;24915;50.858;4.376;2023-03-01T00:16:17;3.10;92.20
39189;DHT22;24915;50.858;4.376;2023-03-01T00:18:43;3.10;92.30
39189;DHT22;24915;50.858;4.376;2023-03-01T00:21:09;3.00;92.40
39189;DHT22;24915;50.858;4.376;2023-03-01T00:23:36;3.00;92.70
39189;DHT22;24915;50.858;4.376;2023-03-01T00:26:06;3.00;92.50
39189;DHT22;24915;50.858;4.376;2023-03-01T00:28:32;3.00;92.70
39189;DHT22;24915;50.858;4.376;2023-03-01T00:31:09;3.00;92.80
39189;DHT22;24915;50.858;4.376;2023-03-01T00:33:35;3.00;92.70
39189;DHT22;24915;50.858;4.376;2023-03-01T00:36:01;3.00;93.20
39189;DHT22;24915;50.858;4.376;2023-03-01T00:38:27;3.00;93.20
39189;DHT22;24915;50.858;4.376;2023-03-01T00:40:53;3.00;93.20
39189;DHT22;24915;50.858;4.376;2023-03-01T00:43:19;3.00;93.40
39189;DHT22;24915;50.858;4.376;2023-03-01T00:45:44;2.90;93.40
39189;DHT22;24915;50.858;4.376;2023-03-01T00:48:10;2.90;93.50
39189;DHT22;24915;50.858;4.376;2023-03-01T00:50:36;2.90;93.70
39189;DHT22;24915;50.858;4.376;2023-03-01T00:53:02;2.90;93.70
39189;DHT22;24915;50.858;4.376;2023-03-01T00:55:28;2.90;94.00
39189;DHT22;24915;50.858;4.376;2023-03-01T00:57:53;2.90;93.70
39189;DHT22;24915;50.858;4.376;2023-03-01T01:00:20;2.80;94.00
39189;DHT22;24915;50.858;4.376;2023-03-01T01:02:46;2.80;93.90
39189;DHT22;24915;50.858;4.376;2023-03-01T01:05:12;2.80;94.20
39189;DHT22;24915;50.858;4.376;2023-03-01T01:07:38;2.80;94.20
39189;DHT22;24915;50.858;4.376;2023-03-01T01:10:04;2.70;94.30
39189;DHT22;24915;50.858;4.376;2023-03-01T01:12:30;2.70;94.50
39189;DHT22;24915;50.858;4.376;2023-03-01T01:14:57;2.70;94.50
39189;DHT22;24915;50.858;4.376;2023-03-01T01:17:22;2.70;94.70
39189;DHT22;24915;50.858;4.376;2023-03-01T01:19:48;2.70;94.80
39189;DHT22;24915;50.858;4.376;2023-03-01T01:22:14;2.70;94.80
39189;DHT22;24915;50.858;4.376;2023-03-01T01:24:39;2.70;94.80
39189;DHT22;24915;50.858;4.376;2023-03-01T01:27:05;2.70;94.90
39189;DHT22;24915;50.858;4.376;2023-03-01T01:29:32;2.70;95.10
39189;DHT22;24915;50.858;4.376;2023-03-01T01:31:58;2.60;95.10
39189;DHT22;24915;50.858;4.376;2023-03-01T01:34:24;2.60;95.20
39189;DHT22;24915;50.858;4.376;2023-03-01T01:36:51;2.60;95.30
39189;DHT22;24915;50.858;4.376;2023-03-01T01:39:19;2.50;95.50
39189;DHT22;24915;50.858;4.376;2023-03-01T01:41:44;2.50;95.80
39189;DHT22;24915;50.858;4.376;2023-03-01T01:49:29;2.50;95.90
39189;DHT22;24915;50.858;4.376;2023-03-01T01:52:11;2.50;96.00
39189;DHT22;24915;50.858;4.376;2023-03-01T01:54:46;2.40;96.10
39189;DHT22;24915;50.858;4.376;2023-03-01T01:57:20;2.40;96.40
39189;DHT22;24915;50.858;4.376;2023-03-01T01:59:52;2.40;96.40
39189;DHT22;24915;50.858;4.376;2023-03-01T02:02:20;2.40;96.50
39189;DHT22;24915;50.858;4.376;2023-03-01T02:04:47;2.40;96.60
39189;DHT22;24915;50.858;4.376;2023-03-01T02:07:17;2.40;96.70
39189;DHT22;24915;50.858;4.376;2023-03-01T02:09:49;2.40;96.70
39189;DHT22;24915;50.858;4.376;2023-03-01T02:12:17;2.30;96.90
39189;DHT22;24915;50.858;4.376;2023-03-01T02:14:43;2.30;96.90
39189;DHT22;24915;50.858;4.376;2023-03-01T02:17:11;2.30;97.00
39189;DHT22;24915;50.858;4.376;2023-03-01T02:22:37;2.30;97.50
39189;DHT22;24915;50.858;4.376;2023-03-01T02:30:22;2.20;97.90
39189;DHT22;24915;50.858;4.376;2023-03-01T02:32:53;2.20;98.10
39189;DHT22;24915;50.858;4.376;2023-03-01T02:35:20;2.20;98.20
39189;DHT22;24915;50.858;4.376;2023-03-01T02:37:47;2.20;98.40
39189;DHT22;24915;50.858;4.376;2023-03-01T02:40:17;2.20;98.20
39189;DHT22;24915;50.858;4.376;2023-03-01T02:42:53;2.10;98.20
39189;DHT22;24915;50.858;4.376;2023-03-01T02:45:19;2.10;98.50
39189;DHT22;24915;50.858;4.376;2023-03-01T02:47:45;2.10;98.70
39189;DHT22;24915;50.858;4.376;2023-03-01T02:55:27;2.10;98.90
39189;DHT22;24915;50.858;4.376;2023-03-01T02:57:53;2.10;99.00
39189;DHT22;24915;50.858;4.376;2023-03-01T03:00:23;2.10;99.10
39189;DHT22;24915;50.858;4.376;2023-03-01T03:02:52;2.10;99.20
39189;DHT22;24915;50.858;4.376;2023-03-01T03:05:22;2.10;99.30
39189;DHT22;24915;50.858;4.376;2023-03-01T03:07:49;2.00;99.40
39189;DHT22;24915;50.858;4.376;2023-03-01T03:10:30;2.00;99.50
39189;DHT22;24915;50.858;4.376;2023-03-01T03:13:02;2.00;99.60
39189;DHT22;24915;50.858;4.376;2023-03-01T03:15:28;2.00;99.70
39189;DHT22;24915;50.858;4.376;2023-03-01T03:17:54;2.00;99.90
39189;DHT22;24915;50.858;4.376;2023-03-01T03:20:25;1.90;99.70
39189;DHT22;24915;50.858;4.376;2023-03-01T03:22:52;1.90;99.90
39189;DHT22;24915;50.858;4.376;2023-03-01T03:25:19;1.90;99.90
39189;DHT22;24915;50.858;4.376;2023-03-01T03:27:47;1.80;99.90
39189;DHT22;24915;50.858;4.376;2023-03-01T03:32:43;1.80;99.90
39189;DHT22;24915;50.858;4.376;2023-03-01T03:35:22;1.70;99.90
39189;DHT22;24915;50.858;4.376;2023-03-01T03:37:50;1.70;99.90
39189;DHT22;24915;50.858;4.376;2023-03-01T03:40:31;1.70;99.90
39189;DHT22;24915;50.858;4.376;2023-03-01T03:42:57;1.70;99.90
39189;DHT22;24915;50.858;4.376;2023-03-01T03:45:23;1.60;99.90
39189;DHT22;24915;50.858;4.376;2023-03-01T03:47:48;1.60;99.90
39189;DHT22;24915;50.858;4.376;2023-03-01T03:50:15;1.50;99.90
39189;DHT22;24915;50.858;4.376;2023-03-01T03:52:42;1.50;99.90
39189;DHT22;24915;50.858;4.376;2023-03-01T03:55:09;1.50;99.90
39189;DHT22;24915;50.858;4.376;2023-03-01T03:57:38;1.50;99.90
39189;DHT22;24915;50.858;4.376;2023-03-01T04:00:06;1.50;99.90
39189;DHT22;24915;50.858;4.376;2023-03-01T04:02:39;1.40;99.90
39189;DHT22;24915;50.858;4.376;2023-03-01T04:05:06;1.40;99.90
39189;DHT22;24915;50.858;4.376;2023-03-01T04:07:33;1.50;99.90
39189;DHT22;24915;50.858;4.376;2023-03-01T04:09:59;1.50;99.90
39189;DHT22;24915;50.858;4.376;2023-03-01T04:12:25;1.50;99.90
39189;DHT22;24915;50.858;4.376;2023-03-01T04:14:50;1.50;99.90
39189;DHT22;24915;50.858;4.376;2023-03-01T04:17:16;1.40;99.90
39189;DHT22;24915;50.858;4.376;2023-03-01T04:19:41;1.40;99.90
39189;DHT22;24915;50.858;4.376;2023-03-01T04:22:09;1.40;99.90
39189;DHT22;24915;50.858;4.376;2023-03-01T04:24:36;1.40;99.90
39189;DHT22;24915;50.858;4.376;2023-03-01T04:27:02;1.40;99.90
39189;DHT22;24915;50.858;4.376;2023-03-01T04:29:28;1.30;99.90
39189;DHT22;24915;50.858;4.376;2023-03-01T04:31:54;1.30;99.90
39189;DHT22;24915;50.858;4.376;2023-03-01T04:34:19;1.30;99.90
39189;DHT22;24915;50.858;4.376;2023-03-01T04:36:45;1.30;99.90
39189;DHT22;24915;50.858;4.376;2023-03-01T04:39:10;1.30;99.90
39189;DHT22;24915;50.858;4.376;2023-03-01T04:41:39;1.20;99.90
39189;DHT22;24915;50.858;4.376;2023-03-01T04:44:07;1.20;99.90
39189;DHT22;24915;50.858;4.376;2023-03-01T04:46:35;1.20;99.90
39189;DHT22;24915;50.858;4.376;2023-03-01T04:49:02;1.20;99.90
39189;DHT22;24915;50.858;4.376;2023-03-01T04:51:27;1.10;99.90
39189;DHT22;24915;50.858;4.376;2023-03-01T04:53:53;1.10;99.90
39189;DHT22;24915;50.858;4.376;2023-03-01T04:56:19;1.10;99.90
39189;DHT22;24915;50.858;4.376;2023-03-01T04:58:45;1.10;99.90
39189;DHT22;24915;50.858;4.376;2023-03-01T05:01:16;1.10;99.90
39189;DHT22;24915;50.858;4.376;2023-03-01T05:03:43;1.00;99.90
39189;DHT22;24915;50.858;4.376;2023-03-01T05:06:09;1.00;99.90
39189;DHT22;24915;50.858;4.376;2023-03-01T05:08:37;1.00;99.90
39189;DHT22;24915;50.858;4.376;2023-03-01T05:11:02;1.00;99.90
39189;DHT22;24915;50.858;4.376;2023-03-01T05:13:28;1.00;99.90
39189;DHT22;24915;50.858;4.376;2023-03-01T05:16:02;1.00;99.90
39189;DHT22;24915;50.858;4.376;2023-03-01T05:18:28;1.00;99.90
39189;DHT22;24915;50.858;4.376;2023-03-01T05:21:01;1.00;99.90
39189;DHT22;24915;50.858;4.376;2023-03-01T05:23:29;1.00;99.90
39189;DHT22;24915;50.858;4.376;2023-03-01T05:25:58;1.00;99.90
39189;DHT22;24915;50.858;4.376;2023-03-01T05:28:25;1.00;99.90
39189;DHT22;24915;50.858;4.376;2023-03-01T05:30:51;1.00;99.90
39189;DHT22;24915;50.858;4.376;2023-03-01T05:33:17;1.00;99.90
39189;DHT22;24915;50.858;4.376;2023-03-01T05:35:44;0.90;99.90
39189;DHT22;24915;50.858;4.376;2023-03-01T05:38:12;0.90;99.90
39189;DHT22;24915;50.858;4.376;2023-03-01T05:40:45;0.90;99.90
39189;DHT22;24915;50.858;4.376;2023-03-01T05:43:12;0.90;99.90
39189;DHT22;24915;50.858;4.376;2023-03-01T05:45:39;0.90;99.90
39189;DHT22;24915;50.858;4.376;2023-03-01T05:48:07;0.90;99.90
39189;DHT22;24915;50.858;4.376;2023-03-01T05:50:37;0.90;99.90
39189;DHT22;24915;50.858;4.376;2023-03-01T05:53:11;0.80;99.90
39189;DHT22;24915;50.858;4.376;2023-03-01T05:55:37;0.80;99.90
39189;DHT22;24915;50.858;4.376;2023-03-01T05:58:06;0.80;99.90
39189;DHT22;24915;50.858;4.376;2023-03-01T06:00:33;0.80;99.90
39189;DHT22;24915;50.858;4.376;2023-03-01T06:03:01;0.70;99.90
39189;DHT22;24915;50.858;4.376;2023-03-01T06:05:27;0.80;99.90
39189;DHT22;24915;50.858;4.376;2023-03-01T06:07:54;0.70;99.90
39189;DHT22;24915;50.858;4.376;2023-03-01T06:10:21;0.70;99.90
39189;DHT22;24915;50.858;4.376;2023-03-01T06:12:47;0.70;99.90
39189;DHT22;24915;50.858;4.376;2023-03-01T06:15:15;0.70;99.90
39189;DHT22;24915;50.858;4.376;2023-03-01T06:17:43;0.80;99.90
39189;DHT22;24915;50.858;4.376;2023-03-01T06:20:11;0.70;99.90
39189;DHT22;24915;50.858;4.376;2023-03-01T06:22:38;0.70;99.90
39189;DHT22;24915;50.858;4.376;2023-03-01T06:25:04;0.80;99.90
39189;DHT22;24915;50.858;4.376;2023-03-01T06:27:30;0.70;99.90
39189;DHT22;24915;50.858;4.376;2023-03-01T06:29:56;0.70;99.90
39189;DHT22;24915;50.858;4.376;2023-03-01T06:32:21;0.70;99.90
39189;DHT22;24915;50.858;4.376;2023-03-01T06:34:47;0.70;99.90
39189;DHT22;24915;50.858;4.376;2023-03-01T06:37:13;0.70;99.90
39189;DHT22;24915;50.858;4.376;2023-03-01T06:39:38;0.70;99.90
39189;DHT22;24915;50.858;4.376;2023-03-01T06:42:04;0.70;99.90
39189;DHT22;24915;50.858;4.376;2023-03-01T06:44:30;0.70;99.90
39189;DHT22;24915;50.858;4.376;2023-03-01T06:46:55;0.70;99.90
39189;DHT22;24915;50.858;4.376;2023-03-01T06:49:21;0.70;99.90
39189;DHT22;24915;50.858;4.376;2023-03-01T06:51:47;0.70;99.90
39189;DHT22;24915;50.858;4.376;2023-03-01T06:54:13;0.70;99.90
39189;DHT22;24915;50.858;4.376;2023-03-01T06:56:39;0.70;99.90
39189;DHT22;24915;50.858;4.376;2023-03-01T06:59:05;0.90;99.90
39189;DHT22;24915;50.858;4.376;2023-03-01T07:01:31;1.00;99.90
39189;DHT22;24915;50.858;4.376;2023-03-01T07:03:57;1.20;99.90
39189;DHT22;24915;50.858;4.376;2023-03-01T07:06:23;1.30;99.90
39189;DHT22;24915;50.858;4.376;2023-03-01T07:08:48;1.40;99.90
39189;DHT22;24915;50.858;4.376;2023-03-01T07:11:15;1.60;99.90
39189;DHT22;24915;50.858;4.376;2023-03-01T07:13:40;1.80;99.90
39189;DHT22;24915;50.858;4.376;2023-03-01T07:16:06;1.90;99.90
39189;DHT22;24915;50.858;4.376;2023-03-01T07:18:32;2.00;99.90
39189;DHT22;24915;50.858;4.376;2023-03-01T07:20:58;2.10;99.90
39189;DHT22;24915;50.858;4.376;2023-03-01T07:23:24;2.20;99.90
39189;DHT22;24915;50.858;4.376;2023-03-01T07:25:55;2.30;99.90
39189;DHT22;24915;50.858;4.376;2023-03-01T07:28:23;2.40;99.90
39189;DHT22;24915;50.858;4.376;2023-03-01T07:30:48;2.60;99.90
39189;DHT22;24915;50.858;4.376;2023-03-01T07:33:14;2.70;99.90
39189;DHT22;24915;50.858;4.376;2023-03-01T07:35:40;2.80;99.90
39189;DHT22;24915;50.858;4.376;2023-03-01T07:38:06;2.80;99.90
39189;DHT22;24915;50.858;4.376;2023-03-01T07:40:31;3.00;99.90
39189;DHT22;24915;50.858;4.376;2023-03-01T07:42:58;3.10;99.90
39189;DHT22;24915;50.858;4.376;2023-03-01T07:45:24;3.20;99.90
39189;DHT22;24915;50.858;4.376;2023-03-01T07:47:51;3.40;99.90
39189;DHT22;24915;50.858;4.376;2023-03-01T07:50:17;3.50;99.90
39189;DHT22;24915;50.858;4.376;2023-03-01T07:52:47;3.60;99.90
39189;DHT22;24915;50.858;4.376;2023-03-01T07:55:13;3.80;99.90
39189;DHT22;24915;50.858;4.376;2023-03-01T07:57:39;3.90;99.90
39189;DHT22;24915;50.858;4.376;2023-03-01T08:00:06;4.00;99.90
39189;DHT22;24915;50.858;4.376;2023-03-01T08:02:31;4.10;99.90
39189;DHT22;24915;50.858;4.376;2023-03-01T08:04:57;4.20;99.90
39189;DHT22;24915;50.858;4.376;2023-03-01T08:07:23;4.40;99.90
39189;DHT22;24915;50.858;4.376;2023-03-01T08:09:48;4.50;99.90
39189;DHT22;24915;50.858;4.376;2023-03-01T08:12:14;4.60;99.90
39189;DHT22;24915;50.858;4.376;2023-03-01T08:14:42;4.70;99.90
39189;DHT22;24915;50.858;4.376;2023-03-01T08:17:08;4.80;99.90
39189;DHT22;24915;50.858;4.376;2023-03-01T08:19:34;4.90;99.90
39189;DHT22;24915;50.858;4.376;2023-03-01T08:22:01;5.00;99.90
39189;DHT22;24915;50.858;4.376;2023-03-01T08:24:27;5.10;99.90
39189;DHT22;24915;50.858;4.376;2023-03-01T08:26:53;5.20;99.90
39189;DHT22;24915;50.858;4.376;2023-03-01T08:29:20;5.30;99.90
39189;DHT22;24915;50.858;4.376;2023-03-01T08:31:45;5.40;99.70
39189;DHT22;24915;50.858;4.376;2023-03-01T08:34:14;5.50;99.60
39189;DHT22;24915;50.858;4.376;2023-03-01T08:36:42;5.60;99.60
39189;DHT22;24915;50.858;4.376;2023-03-01T08:39:10;5.80;99.10
39189;DHT22;24915;50.858;4.376;2023-03-01T08:41:37;5.90;98.40
39189;DHT22;24915;50.858;4.376;2023-03-01T08:44:03;6.10;98.60
39189;DHT22;24915;50.858;4.376;2023-03-01T08:46:31;6.10;98.10
39189;DHT22;24915;50.858;4.376;2023-03-01T08:48:57;6.30;98.10
39189;DHT22;24915;50.858;4.376;2023-03-01T08:51:24;6.40;97.20
39189;DHT22;24915;50.858;4.376;2023-03-01T08:53:50;6.40;97.50
39189;DHT22;24915;50.858;4.376;2023-03-01T08:56:18;6.60;97.10
39189;DHT22;24915;50.858;4.376;2023-03-01T08:58:46;6.70;96.50
39189;DHT22;24915;50.858;4.376;2023-03-01T09:01:14;6.80;96.80
39189;DHT22;24915;50.858;4.376;2023-03-01T09:03:40;6.90;96.40
39189;DHT22;24915;50.858;4.376;2023-03-01T09:06:07;7.00;95.70
39189;DHT22;24915;50.858;4.376;2023-03-01T09:08:37;7.00;95.70
39189;DHT22;24915;50.858;4.376;2023-03-01T09:11:04;7.10;95.00
39189;DHT22;24915;50.858;4.376;2023-03-01T09:13:30;7.20;95.00
39189;DHT22;24915;50.858;4.376;2023-03-01T09:16:01;7.30;95.10
39189;DHT22;24915;50.858;4.376;2023-03-01T09:18:27;7.50;94.80
39189;DHT22;24915;50.858;4.376;2023-03-01T09:21:00;7.60;94.40
39189;DHT22;24915;50.858;4.376;2023-03-01T09:23:25;7.70;93.90
39189;DHT22;24915;50.858;4.376;2023-03-01T09:25:52;7.80;93.10
39189;DHT22;24915;50.858;4.376;2023-03-01T09:28:18;7.90;93.20
39189;DHT22;24915;50.858;4.376;2023-03-01T09:30:43;7.90;92.60
39189;DHT22;24915;50.858;4.376;2023-03-01T09:33:10;8.00;92.50
39189;DHT22;24915;50.858;4.376;2023-03-01T09:35:40;8.10;92.90
39189;DHT22;24915;50.858;4.376;2023-03-01T09:38:12;8.10;92.20
39189;DHT22;24915;50.858;4.376;2023-03-01T09:40:42;8.20;91.80
39189;DHT22;24915;50.858;4.376;2023-03-01T09:43:18;8.20;91.30
39189;DHT22;24915;50.858;4.376;2023-03-01T09:45:46;8.20;90.40
39189;DHT22;24915;50.858;4.376;2023-03-01T09:48:18;8.20;90.70
39189;DHT22;24915;50.858;4.376;2023-03-01T09:50:47;8.10;90.00
39189;DHT22;24915;50.858;4.376;2023-03-01T09:53:22;8.10;90.20
39189;DHT22;24915;50.858;4.376;2023-03-01T09:55:55;8.20;90.30
39189;DHT22;24915;50.858;4.376;2023-03-01T10:06:30;8.60;89.90
39189;DHT22;24915;50.858;4.376;2023-03-01T10:08:56;8.80;89.70
39189;DHT22;24915;50.858;4.376;2023-03-01T10:11:36;9.00;89.30
39189;DHT22;24915;50.858;4.376;2023-03-01T10:14:09;9.20;88.10
39189;DHT22;24915;50.858;4.376;2023-03-01T10:16:52;9.30;87.10
39189;DHT22;24915;50.858;4.376;2023-03-01T10:19:30;9.50;86.60
39189;DHT22;24915;50.858;4.376;2023-03-01T10:22:03;9.60;86.30
39189;DHT22;24915;50.858;4.376;2023-03-01T10:24:34;9.80;85.60
39189;DHT22;24915;50.858;4.376;2023-03-01T10:27:34;9.80;83.70
39189;DHT22;24915;50.858;4.376;2023-03-01T10:32:52;9.80;83.30
39189;DHT22;24915;50.858;4.376;2023-03-01T10:35:21;9.90;80.90
39189;DHT22;24915;50.858;4.376;2023-03-01T10:40:23;10.20;81.50
39189;DHT22;24915;50.858;4.376;2023-03-01T10:42:49;10.40;80.70
39189;DHT22;24915;50.858;4.376;2023-03-01T10:48:05;10.70;81.20
39189;DHT22;24915;50.858;4.376;2023-03-01T10:50:31;10.90;80.10
39189;DHT22;24915;50.858;4.376;2023-03-01T10:53:02;11.10;78.80
39189;DHT22;24915;50.858;4.376;2023-03-01T10:55:35;11.40;78.30
39189;DHT22;24915;50.858;4.376;2023-03-01T10:58:09;11.50;76.70
39189;DHT22;24915;50.858;4.376;2023-03-01T11:00:58;11.60;76.60
39189;DHT22;24915;50.858;4.376;2023-03-01T11:03:35;12.00;76.80
39189;DHT22;24915;50.858;4.376;2023-03-01T11:06:03;12.30;75.30
39189;DHT22;24915;50.858;4.376;2023-03-01T11:08:41;12.40;74.50
39189;DHT22;24915;50.858;4.376;2023-03-01T11:13:51;12.60;73.40
39189;DHT22;24915;50.858;4.376;2023-03-01T11:16:30;12.70;73.30
39189;DHT22;24915;50.858;4.376;2023-03-01T11:19:15;12.90;72.70
39189;DHT22;24915;50.858;4.376;2023-03-01T11:24:17;13.30;68.40
39189;DHT22;24915;50.858;4.376;2023-03-01T11:26:49;13.50;70.90
39189;DHT22;24915;50.858;4.376;2023-03-01T11:29:40;13.70;70.20
39189;DHT22;24915;50.858;4.376;2023-03-01T11:32:09;13.90;67.60
39189;DHT22;24915;50.858;4.376;2023-03-01T11:34:44;14.00;67.20
39189;DHT22;24915;50.858;4.376;2023-03-01T11:38:04;14.00;66.40
39189;DHT22;24915;50.858;4.376;2023-03-01T11:40:26;14.20;65.50
39189;DHT22;24915;50.858;4.376;2023-03-01T11:59:06;14.70;63.70
39189;DHT22;24915;50.858;4.376;2023-03-01T12:07:35;15.30;62.20
39189;DHT22;24915;50.858;4.376;2023-03-01T12:10:20;15.60;61.50
39189;DHT22;24915;50.858;4.376;2023-03-01T12:13:08;15.90;59.20
39189;DHT22;24915;50.858;4.376;2023-03-01T12:26:42;16.50;57.70
39189;DHT22;24915;50.858;4.376;2023-03-01T12:35:04;16.70;55.90
39189;DHT22;24915;50.858;4.376;2023-03-01T12:40:51;16.70;56.80
39189;DHT22;24915;50.858;4.376;2023-03-01T12:46:10;16.80;55.30
39189;DHT22;24915;50.858;4.376;2023-03-01T12:51:13;17.20;55.70
39189;DHT22;24915;50.858;4.376;2023-03-01T12:53:49;17.30;55.10
39189;DHT22;24915;50.858;4.376;2023-03-01T12:56:23;17.40;55.20
39189;DHT22;24915;50.858;4.376;2023-03-01T13:04:36;17.90;54.30
39189;DHT22;24915;50.858;4.376;2023-03-01T13:12:01;17.80;53.40
39189;DHT22;24915;50.858;4.376;2023-03-01T13:14:35;18.10;54.40
39189;DHT22;24915;50.858;4.376;2023-03-01T13:17:01;18.10;53.20
39189;DHT22;24915;50.858;4.376;2023-03-01T13:19:28;18.20;52.70
39189;DHT22;24915;50.858;4.376;2023-03-01T13:22:31;18.20;51.70
39189;DHT22;24915;50.858;4.376;2023-03-01T13:25:16;18.10;52.60
39189;DHT22;24915;50.858;4.376;2023-03-01T13:27:44;18.30;52.20
39189;DHT22;24915;50.858;4.376;2023-03-01T13:35:58;18.60;51.40
39189;DHT22;24915;50.858;4.376;2023-03-01T13:41:24;18.80;50.30
39189;DHT22;24915;50.858;4.376;2023-03-01T13:44:12;18.80;50.50
39189;DHT22;24915;50.858;4.376;2023-03-01T13:46:38;18.60;48.90
39189;DHT22;24915;50.858;4.376;2023-03-01T13:49:04;18.40;51.20
39189;DHT22;24915;50.858;4.376;2023-03-01T13:51:29;18.30;49.60
39189;DHT22;24915;50.858;4.376;2023-03-01T13:53:56;18.50;51.90
39189;DHT22;24915;50.858;4.376;2023-03-01T13:56:32;18.90;49.30
39189;DHT22;24915;50.858;4.376;2023-03-01T13:59:02;18.80;49.70
39189;DHT22;24915;50.858;4.376;2023-03-01T14:01:32;19.00;49.90
39189;DHT22;24915;50.858;4.376;2023-03-01T14:03:58;19.30;50.20
39189;DHT22;24915;50.858;4.376;2023-03-01T14:06:29;19.40;49.50
39189;DHT22;24915;50.858;4.376;2023-03-01T14:09:15;19.40;49.20
39189;DHT22;24915;50.858;4.376;2023-03-01T14:12:01;19.60;49.40
39189;DHT22;24915;50.858;4.376;2023-03-01T14:14:52;19.40;48.10
39189;DHT22;24915;50.858;4.376;2023-03-01T14:17:38;19.50;48.20
39189;DHT22;24915;50.858;4.376;2023-03-01T14:22:46;19.90;48.60
39189;DHT22;24915;50.858;4.376;2023-03-01T14:25:31;20.30;47.10
39189;DHT22;24915;50.858;4.376;2023-03-01T14:27:58;21.00;47.30
39189;DHT22;24915;50.858;4.376;2023-03-01T14:30:48;21.70;46.10
39189;DHT22;24915;50.858;4.376;2023-03-01T14:33:33;22.30;42.40
39189;DHT22;24915;50.858;4.376;2023-03-01T14:36:01;23.10;43.00
39189;DHT22;24915;50.858;4.376;2023-03-01T14:41:03;24.70;40.20
39189;DHT22;24915;50.858;4.376;2023-03-01T14:43:29;25.40;39.90
39189;DHT22;24915;50.858;4.376;2023-03-01T14:45:56;26.00;40.40
39189;DHT22;24915;50.858;4.376;2023-03-01T14:48:22;26.40;37.80
39189;DHT22;24915;50.858;4.376;2023-03-01T14:50:50;26.80;36.40
39189;DHT22;24915;50.858;4.376;2023-03-01T14:53:21;26.90;35.80
39189;DHT22;24915;50.858;4.376;2023-03-01T14:55:54;27.10;35.80
39189;DHT22;24915;50.858;4.376;2023-03-01T14:58:23;27.30;34.70
39189;DHT22;24915;50.858;4.376;2023-03-01T15:00:57;27.50;34.70
39189;DHT22;24915;50.858;4.376;2023-03-01T15:03:25;27.50;34.00
39189;DHT22;24915;50.858;4.376;2023-03-01T15:05:53;27.50;33.70
39189;DHT22;24915;50.858;4.376;2023-03-01T15:08:24;27.50;33.40
39189;DHT22;24915;50.858;4.376;2023-03-01T15:11:21;27.30;32.50
39189;DHT22;24915;50.858;4.376;2023-03-01T15:13:48;27.20;33.20
39189;DHT22;24915;50.858;4.376;2023-03-01T15:16:17;27.40;32.90
39189;DHT22;24915;50.858;4.376;2023-03-01T15:18:53;27.40;32.60
39189;DHT22;24915;50.858;4.376;2023-03-01T15:21:25;26.90;32.40
39189;DHT22;24915;50.858;4.376;2023-03-01T15:24:05;26.60;32.50
39189;DHT22;24915;50.858;4.376;2023-03-01T15:26:41;26.30;33.00
39189;DHT22;24915;50.858;4.376;2023-03-01T15:29:18;26.10;33.20
39189;DHT22;24915;50.858;4.376;2023-03-01T15:32:05;25.90;33.20
39189;DHT22;24915;50.858;4.376;2023-03-01T15:34:36;25.70;33.70
39189;DHT22;24915;50.858;4.376;2023-03-01T15:37:04;25.60;34.00
39189;DHT22;24915;50.858;4.376;2023-03-01T15:39:42;25.40;34.00
39189;DHT22;24915;50.858;4.376;2023-03-01T15:42:38;25.30;33.70
39189;DHT22;24915;50.858;4.376;2023-03-01T15:47:47;24.50;34.40
39189;DHT22;24915;50.858;4.376;2023-03-01T15:50:46;24.20;35.20
39189;DHT22;24915;50.858;4.376;2023-03-01T15:53:19;23.90;35.20
39189;DHT22;24915;50.858;4.376;2023-03-01T15:55:44;23.50;35.70
39189;DHT22;24915;50.858;4.376;2023-03-01T15:58:18;23.10;35.70
39189;DHT22;24915;50.858;4.376;2023-03-01T16:00:45;22.50;36.00
39189;DHT22;24915;50.858;4.376;2023-03-01T16:03:12;21.50;37.20
39189;DHT22;24915;50.858;4.376;2023-03-01T16:05:38;19.60;39.90
39189;DHT22;24915;50.858;4.376;2023-03-01T16:08:05;17.80;42.80
39189;DHT22;24915;50.858;4.376;2023-03-01T16:10:32;16.20;44.70
39189;DHT22;24915;50.858;4.376;2023-03-01T16:12:59;14.90;47.10
39189;DHT22;24915;50.858;4.376;2023-03-01T16:15:30;13.90;48.70
39189;DHT22;24915;50.858;4.376;2023-03-01T16:17:57;13.10;50.40
39189;DHT22;24915;50.858;4.376;2023-03-01T16:20:26;12.40;51.80
39189;DHT22;24915;50.858;4.376;2023-03-01T16:22:52;12.00;52.90
39189;DHT22;24915;50.858;4.376;2023-03-01T16:25:19;11.70;54.10
39189;DHT22;24915;50.858;4.376;2023-03-01T16:27:46;11.40;54.70
39189;DHT22;24915;50.858;4.376;2023-03-01T16:30:13;11.30;55.10
39189;DHT22;24915;50.858;4.376;2023-03-01T16:32:43;11.10;55.70
39189;DHT22;24915;50.858;4.376;2023-03-01T16:35:12;10.90;55.90
39189;DHT22;24915;50.858;4.376;2023-03-01T16:37:38;10.60;56.60
39189;DHT22;24915;50.858;4.376;2023-03-01T16:40:06;10.50;57.50
39189;DHT22;24915;50.858;4.376;2023-03-01T16:42:36;10.30;58.10
39189;DHT22;24915;50.858;4.376;2023-03-01T16:45:03;10.10;58.30
39189;DHT22;24915;50.858;4.376;2023-03-01T16:47:29;10.00;58.60
39189;DHT22;24915;50.858;4.376;2023-03-01T16:49:55;9.90;59.00
39189;DHT22;24915;50.858;4.376;2023-03-01T16:52:21;9.80;59.30
39189;DHT22;24915;50.858;4.376;2023-03-01T16:54:48;9.60;59.80
39189;DHT22;24915;50.858;4.376;2023-03-01T16:57:14;9.50;60.40
39189;DHT22;24915;50.858;4.376;2023-03-01T16:59:40;9.50;60.60
39189;DHT22;24915;50.858;4.376;2023-03-01T17:02:08;9.30;61.20
39189;DHT22;24915;50.858;4.376;2023-03-01T17:04:36;9.30;61.30
39189;DHT22;24915;50.858;4.376;2023-03-01T17:07:02;9.30;61.70
39189;DHT22;24915;50.858;4.376;2023-03-01T17:09:28;9.20;62.60
39189;DHT22;24915;50.858;4.376;2023-03-01T17:11:54;9.10;62.50
39189;DHT22;24915;50.858;4.376;2023-03-01T17:14:20;9.00;62.20
39189;DHT22;24915;50.858;4.376;2023-03-01T17:16:46;8.90;62.90
39189;DHT22;24915;50.858;4.376;2023-03-01T17:19:11;8.80;63.70
39189;DHT22;24915;50.858;4.376;2023-03-01T17:21:43;8.70;63.80
39189;DHT22;24915;50.858;4.376;2023-03-01T17:24:09;8.60;64.30
39189;DHT22;24915;50.858;4.376;2023-03-01T17:26:35;8.50;64.30
39189;DHT22;24915;50.858;4.376;2023-03-01T17:29:01;8.50;64.60
39189;DHT22;24915;50.858;4.376;2023-03-01T17:31:28;8.40;64.90
39189;DHT22;24915;50.858;4.376;2023-03-01T17:33:54;8.30;65.70
39189;DHT22;24915;50.858;4.376;2023-03-01T17:36:19;8.20;65.40
39189;DHT22;24915;50.858;4.376;2023-03-01T17:38:45;8.10;65.70
39189;DHT22;24915;50.858;4.376;2023-03-01T17:41:11;8.10;66.10
39189;DHT22;24915;50.858;4.376;2023-03-01T17:43:37;8.00;66.00
39189;DHT22;24915;50.858;4.376;2023-03-01T17:46:03;8.00;66.70
39189;DHT22;24915;50.858;4.376;2023-03-01T17:48:29;7.90;66.20
39189;DHT22;24915;50.858;4.376;2023-03-01T17:50:54;7.90;66.90
39189;DHT22;24915;50.858;4.376;2023-03-01T17:53:20;7.80;67.30